Greenwood Leflore Airport
KGWO : now visible

Aeroporto :











RITROVATECI SU...

 
LOGIN :

Iscrizione | Disclaimer

   EN    FR    IT 

 









Sommario :    VFR   VFR Marginale   IFR   IFR Intensivo   IFR Molto Intensivo
Visibilità : 
Base nubi : 
>= 8 km
>= 3000ft
5 / 8 km
1000 / 3000 ft
1500m / 5 km
500 / 1000 ft
800 / 1500m
200 / 500 ft
< 800m
< 200 ft
Simboli :   Temporali  Nebbia  Neve Forte  Precipitazioni Forti  Vento > 20 kt






- Altitudine del aeroporto : 162 ft


KGWO - Greenwood Leflore

ULTIMO METAR :
  • 200953Z AUTO 03013KT 6SM RA BR BKN011 OVC021 07/04 A3024 RMK AO2 SLP240 P0012 T00670044

METARs OBSOLETI :
  • 200937Z AUTO 02012KT 7SM RA BKN012 OVC021 07/05 A3023 RMK AO2 P0008 T00670050
  • 200853Z AUTO 03012KT 7SM RA FEW010 OVC023 07/06 A3022 RMK AO2 SLP233 P0013 60038 T00720056 58009
  • 200753Z AUTO 04010KT 6SM RA BR BKN023 BKN041 OVC085 08/06 A3024 RMK AO2 SLP240 P0015 T00780061

TAF KGWO
Valido dal 20 a 09 ore il 21 a 06 ore UTC


200850Z 2009/2106 04010KT 6SM -RA BR BKN020 OVC040
FM201200 02013KT 4SM -RA BR BKN007 OVC012
FM201700 03017G25KT 4SM -RA BR OVC015
FM202100 02015G23KT P6SM OVC015
FM210000 36013G20KT P6SM BKN025
FM210300 01011KT P6SM FEW250



MetMap, La meteo Aeronautica in un colpo d'occhio ! - Copyright ORBIFLY Dicembre 2007 - Disclaimer

ORBIFLY MET'MAP TEAM :

Programmazione e sviluppo : Alexandra Zaïnal
Concezione : Baudouin d'Aumeries
Aiuto per la programmazione : Marc-Olivier Méhu
Supporto tecnico e logistico : Manuel Goepfert
Aiuto per la traduzione : Arnaldo La Scala

Contatto : metmap@orbifly.com




FONTI E CREDITI :

   NOAA       Earth
Advisory